Time;durP1;ratioP1;P1;durP2;ratioP2;P2;SDS_P1;SDS_P2;PMS_P1;PMS_P2;Temp;Humidity;BMP_temperature;BMP_pressure;BME280_temperature;BME280_humidity;BME280_pressure;Samples;Min_cycle;Max_cycle;Signal;HPM_P1;HPM_P2
2022/03/04 00:01:35;;;;;;;;;39.00;33.50;;;;;13.69;57.54;101233.72;4941257;28;45278;-66
2022/03/04 00:04:00;;;;;;;;;35.00;33.00;;;;;13.68;57.70;101240.03;4935296;28;45230;-66
2022/03/04 00:06:25;;;;;;;;;46.25;37.00;;;;;13.66;57.72;101241.88;4941112;28;45378;-66
2022/03/04 00:08:51;;;;;;;;;42.75;36.00;;;;;13.69;57.40;101239.09;4941211;28;45607;-66
2022/03/04 00:11:17;;;;;;;;;44.75;36.50;;;;;13.70;57.52;101240.84;4941210;28;45306;-66
2022/03/04 00:13:43;;;;;;;;;44.50;37.50;;;;;13.65;57.55;101232.09;4940733;28;46194;-66
2022/03/04 00:16:08;;;;;;;;;50.75;37.25;;;;;13.70;57.71;101242.69;4942793;28;45451;-66
2022/03/04 00:18:33;;;;;;;;;50.75;40.75;;;;;13.65;57.44;101231.25;4941329;28;46014;-66
2022/03/04 00:21:00;;;;;;;;;45.25;38.25;;;;;13.71;57.75;101245.31;4929283;28;45488;-66
2022/03/04 00:23:26;;;;;;;;;40.25;35.00;;;;;13.65;57.63;101234.78;4925695;28;46691;-66
2022/03/04 00:25:51;;;;;;;;;49.25;36.75;;;;;13.65;57.73;101239.28;4928644;28;45436;-66
2022/03/04 00:28:16;;;;;;;;;52.25;42.00;;;;;13.70;57.91;101256.09;4931522;28;45237;-66
2022/03/04 00:30:41;;;;;;;;;45.75;40.00;;;;;13.69;57.78;101247.16;4927827;28;45330;-66
2022/03/04 00:33:07;;;;;;;;;46.75;38.00;;;;;13.70;57.61;101248.03;4956195;28;45358;-66
2022/03/04 00:35:32;;;;;;;;;46.25;37.75;;;;;13.66;57.74;101241.88;4942744;28;45342;-66
2022/03/04 00:37:58;;;;;;;;;52.50;43.25;;;;;13.69;57.91;101239.09;4945595;28;45565;-66
2022/03/04 00:40:23;;;;;;;;;48.25;41.25;;;;;13.69;57.83;101239.09;4933951;28;45433;-66
2022/03/04 00:42:48;;;;;;;;;51.00;41.00;;;;;13.67;57.90;101240.09;4939932;28;45212;-66
2022/03/04 00:45:14;;;;;;;;;54.25;43.75;;;;;13.64;58.09;101233.03;4943972;28;45396;-66
2022/03/04 00:47:39;;;;;;;;;51.75;42.25;;;;;13.64;57.92;101229.47;4934565;28;46003;-66
2022/03/04 00:50:06;;;;;;;;;50.75;41.50;;;;;13.67;58.05;101232.06;4934571;28;45215;-66
2022/03/04 00:52:31;;;;;;;;;52.00;41.50;;;;;13.62;58.17;101234.03;4936558;28;46908;-66
2022/03/04 00:54:57;;;;;;;;;52.50;43.50;;;;;13.62;58.28;101228.66;4932727;28;45393;-66
2022/03/04 00:57:22;;;;;;;;;50.00;42.50;;;;;13.63;58.08;101231.31;4930524;28;45523;-66
2022/03/04 00:59:48;;;;;;;;;54.00;42.50;;;;;13.59;58.15;101228.78;4942212;28;45309;-66
2022/03/04 01:02:13;;;;;;;;;50.50;41.00;;;;;13.59;58.11;101226.09;4937282;28;46468;-66
2022/03/04 01:04:39;;;;;;;;;52.75;41.75;;;;;13.59;58.15;101223.41;4943575;28;45464;-66
2022/03/04 01:07:05;;;;;;;;;52.25;41.75;;;;;13.58;58.45;101235.06;4950108;28;45425;-66
2022/03/04 01:09:30;;;;;;;;;53.25;42.75;;;;;13.53;58.40;101236.13;4943569;28;45306;-66
2022/03/04 01:11:56;;;;;;;;;52.75;41.25;;;;;13.51;58.41;101235.31;4939495;28;46535;-66
2022/03/04 01:14:21;;;;;;;;;52.75;43.75;;;;;13.48;58.42;101232.75;4929084;28;45190;-66
2022/03/04 01:16:47;;;;;;;;;52.00;42.50;;;;;13.46;58.29;101239.94;4942479;28;44836;-66
2022/03/04 01:19:12;;;;;;;;;54.00;44.75;;;;;13.45;58.11;101240.03;4928485;28;45451;-66
2022/03/04 01:21:38;;;;;;;;;56.25;43.00;;;;;13.45;58.44;101246.25;4947526;28;46269;-66
2022/03/04 01:24:04;;;;;;;;;56.00;44.00;;;;;13.40;58.29;101233.94;4939233;28;45327;-66
2022/03/04 01:26:29;;;;;;;;;54.50;45.75;;;;;13.35;58.43;101228.75;4934975;28;45558;-66
2022/03/04 01:28:55;;;;;;;;;51.00;41.25;;;;;13.38;58.44;101234.00;4943234;28;45372;-66
2022/03/04 01:31:20;;;;;;;;;53.00;42.25;;;;;13.38;58.48;101238.47;4943535;28;45985;-66
2022/03/04 01:33:45;;;;;;;;;54.00;42.00;;;;;13.39;58.69;101237.56;4943579;28;45266;-66
2022/03/04 01:36:11;;;;;;;;;45.00;37.75;;;;;13.39;58.71;101238.41;4944233;28;45334;-66
2022/03/04 01:38:36;;;;;;;;;50.25;39.25;;;;;13.40;58.57;101241.97;4947068;28;45517;-66
2022/03/04 01:41:02;;;;;;;;;55.00;45.75;;;;;13.36;58.86;101237.66;4943141;28;46104;-66
2022/03/04 01:43:28;;;;;;;;;53.50;42.50;;;;;13.35;58.78;101228.75;4943569;28;45389;-66
2022/03/04 01:45:53;;;;;;;;;52.25;41.00;;;;;13.30;58.94;101233.38;4943193;28;45520;-66
2022/03/04 01:48:20;;;;;;;;;48.75;40.50;;;;;13.31;58.95;101230.66;4943478;28;45313;-66
2022/03/04 01:50:50;;;;;;;;;55.25;45.00;;;;;13.33;59.03;101230.59;4942951;28;45353;-66
2022/03/04 01:53:17;;;;;;;;;50.50;42.00;;;;;13.37;58.79;101231.38;4939141;28;45770;-66
2022/03/04 01:55:43;;;;;;;;;52.50;43.50;;;;;13.31;58.73;101217.25;4940987;28;45452;-66
2022/03/04 01:58:08;;;;;;;;;55.00;44.50;;;;;13.34;58.88;101217.13;4941911;28;45462;-66
2022/03/04 02:00:34;;;;;;;;;48.00;40.25;;;;;13.34;59.01;101222.50;4942482;28;45423;-66
2022/03/04 02:03:00;;;;;;;;;50.25;42.00;;;;;13.31;59.18;101224.38;4943003;28;45410;-66
2022/03/04 02:05:26;;;;;;;;;47.50;40.00;;;;;13.25;59.05;101216.59;4931752;28;45266;-66
2022/03/04 02:07:51;;;;;;;;;48.75;39.75;;;;;13.27;59.06;101218.25;4941695;28;45572;-66
2022/03/04 02:10:17;;;;;;;;;46.75;38.25;;;;;13.27;59.06;101209.34;4941764;28;46547;-67
2022/03/04 02:12:42;;;;;;;;;50.25;40.50;;;;;13.27;58.96;101207.53;4936364;28;45303;-66
2022/03/04 02:15:08;;;;;;;;;45.50;38.25;;;;;13.28;58.92;101219.13;4942285;28;45302;-66
2022/03/04 02:17:34;;;;;;;;;46.50;38.00;;;;;13.24;59.06;101202.28;4941027;28;45452;-66
2022/03/04 02:20:01;;;;;;;;;47.50;40.25;;;;;13.25;59.06;101198.69;4927284;28;46076;-66
2022/03/04 02:22:26;;;;;;;;;49.75;40.00;;;;;13.25;59.06;101200.50;4929808;28;45678;-66
2022/03/04 02:24:52;;;;;;;;;52.00;42.00;;;;;13.22;59.00;101214.88;4924823;28;45521;-66
2022/03/04 02:27:17;;;;;;;;;46.25;36.50;;;;;13.20;58.92;101214.06;4930695;28;45334;-66
2022/03/04 02:29:42;;;;;;;;;46.50;37.75;;;;;13.16;59.08;101202.56;4924613;28;46214;-66
2022/03/04 02:32:08;;;;;;;;;46.75;39.25;;;;;13.14;58.90;101201.72;4949309;28;45234;-66
2022/03/04 02:34:34;;;;;;;;;50.75;41.75;;;;;13.15;58.85;101202.63;4928816;28;45435;-66
2022/03/04 02:36:59;;;;;;;;;44.00;36.00;;;;;13.16;58.88;101204.34;4942507;28;45397;-66
2022/03/04 02:39:25;;;;;;;;;44.00;36.50;;;;;13.14;58.94;101196.38;4945314;28;45541;-66
2022/03/04 02:41:51;;;;;;;;;51.25;41.50;;;;;13.12;58.95;101198.25;4934457;28;45340;-66
2022/03/04 02:44:17;;;;;;;;;48.50;42.00;;;;;13.11;58.82;101200.97;4941597;28;45171;-66
2022/03/04 02:46:42;;;;;;;;;48.25;40.75;;;;;13.04;58.96;101202.13;4940763;28;45329;-66
2022/03/04 02:49:10;;;;;;;;;42.75;37.25;;;;;13.07;59.09;101213.59;4937738;28;46157;-66
2022/03/04 02:51:36;;;;;;;;;46.50;37.75;;;;;13.06;58.90;101213.66;4943795;28;45336;-66
2022/03/04 02:54:02;;;;;;;;;51.00;40.75;;;;;13.06;59.10;101209.16;4940088;28;45535;-66
2022/03/04 02:56:28;;;;;;;;;48.00;37.00;;;;;13.08;58.86;101217.16;4941317;28;45325;-66
2022/03/04 02:58:53;;;;;;;;;50.25;38.25;;;;;13.09;59.07;101216.25;4937194;28;46268;-66
2022/03/04 03:01:19;;;;;;;;;49.00;38.00;;;;;13.06;59.04;101209.16;4941135;28;45401;-66
2022/03/04 03:03:44;;;;;;;;;49.50;39.50;;;;;13.06;59.14;101213.66;4941661;28;45287;-66
2022/03/04 03:06:10;;;;;;;;;42.25;35.00;;;;;12.99;59.15;101204.97;4941811;28;45481;-66
2022/03/04 03:08:36;;;;;;;;;39.25;35.00;;;;;13.04;58.92;101210.16;4940521;28;47313;-66
2022/03/04 03:11:02;;;;;;;;;38.25;34.00;;;;;13.04;59.08;101211.03;4930866;28;45590;-66
2022/03/04 03:13:28;;;;;;;;;44.50;37.25;;;;;13.01;59.01;101208.47;4940271;28;45369;-66
2022/03/04 03:15:53;;;;;;;;;45.50;38.50;;;;;12.92;59.44;101198.94;4937559;28;45453;-66
2022/03/04 03:18:18;;;;;;;;;40.25;34.75;;;;;12.98;59.36;101214.81;4939177;28;45369;-66
2022/03/04 03:20:44;;;;;;;;;47.00;39.00;;;;;12.95;59.51;101206.00;4931684;28;45416;-66
2022/03/04 03:23:10;;;;;;;;;43.75;37.00;;;;;12.94;59.20;101215.84;4941938;28;45232;-66
2022/03/04 03:25:36;;;;;;;;;46.75;38.00;;;;;12.97;59.24;101218.41;4933565;28;45425;-66
2022/03/04 03:28:02;;;;;;;;;44.00;36.50;;;;;13.00;59.30;101208.50;4933001;28;47308;-66
2022/03/04 03:30:29;;;;;;;;;41.00;35.25;;;;;13.00;59.24;101211.19;4954246;28;45265;-66
2022/03/04 03:32:54;;;;;;;;;42.75;35.25;;;;;13.02;59.38;101222.75;4933328;28;45491;-66
2022/03/04 03:35:20;;;;;;;;;50.25;38.25;;;;;13.02;59.38;101218.25;4932734;28;45368;-66
2022/03/04 03:37:45;;;;;;;;;34.25;31.50;;;;;13.03;59.36;101221.81;4941353;28;45961;-66
2022/03/04 03:40:12;;;;;;;;;45.25;37.00;;;;;12.99;59.17;101213.00;4937562;28;45322;-66
2022/03/04 03:42:39;;;;;;;;;40.75;34.00;;;;;13.04;59.39;101221.75;4936399;28;45404;-66
2022/03/04 03:45:06;;;;;;;;;42.00;35.75;;;;;13.02;59.44;101218.25;4940792;28;45377;-66
2022/03/04 03:47:32;;;;;;;;;41.75;36.75;;;;;12.98;59.68;101205.91;4941355;28;46178;-66
2022/03/04 03:49:57;;;;;;;;;46.50;37.75;;;;;13.05;59.50;101230.69;4952924;28;45377;-66
2022/03/04 03:52:22;;;;;;;;;40.25;35.00;;;;;13.05;59.51;101223.50;4933946;28;45367;-66
2022/03/04 03:54:48;;;;;;;;;43.25;36.25;;;;;13.04;59.72;101226.25;4944899;28;45544;-66
2022/03/04 03:57:13;;;;;;;;;43.75;34.25;;;;;13.11;59.50;101230.44;4942466;28;46264;-66
2022/03/04 03:59:38;;;;;;;;;39.25;35.50;;;;;13.11;59.42;101231.34;4941025;28;45407;-66
2022/03/04 04:02:04;;;;;;;;;40.00;35.25;;;;;13.11;59.37;101228.66;4947339;28;45464;-66
2022/03/04 04:04:35;;;;;;;;;46.75;37.00;;;;;13.11;59.68;101225.09;4945889;28;45642;-66
2022/03/04 04:07:04;;;;;;;;;48.00;37.25;;;;;13.12;59.44;101226.84;4946272;28;46296;-66
2022/03/04 04:09:29;;;;;;;;;46.75;38.00;;;;;13.12;59.59;101235.75;4928576;28;45330;-66
2022/03/04 04:11:54;;;;;;;;;45.25;39.25;;;;;13.09;59.28;101226.97;4941335;28;45467;-66
2022/03/04 04:14:20;;;;;;;;;47.25;38.75;;;;;13.12;59.53;101232.22;4942497;28;45582;-66
2022/03/04 04:16:45;;;;;;;;;56.00;43.00;;;;;13.14;59.53;101230.34;4942632;28;45987;-66
2022/03/04 04:19:10;;;;;;;;;46.75;41.00;;;;;13.17;59.66;101232.94;4943440;28;45483;-66
2022/03/04 04:21:36;;;;;;;;;48.50;40.50;;;;;13.16;59.54;101232.06;4943637;28;45329;-66
2022/03/04 04:24:02;;;;;;;;;47.00;39.50;;;;;13.13;59.36;101221.44;4938599;28;45459;-66
2022/03/04 04:26:27;;;;;;;;;50.25;41.00;;;;;13.18;59.31;101228.44;4936047;28;45965;-66
2022/03/04 04:28:53;;;;;;;;;46.00;38.00;;;;;13.16;59.50;101232.06;4935513;28;45503;-66
2022/03/04 04:31:19;;;;;;;;;50.50;39.75;;;;;13.14;59.28;101225.00;4943409;28;45409;-66
2022/03/04 04:33:44;;;;;;;;;51.25;42.50;;;;;13.17;59.25;101238.28;4937805;28;45151;-66
2022/03/04 04:36:10;;;;;;;;;46.75;38.25;;;;;13.13;59.24;101237.53;4947168;28;46146;-66
2022/03/04 04:38:35;;;;;;;;;48.00;39.00;;;;;13.12;59.51;101234.91;4946973;28;45345;-66
2022/03/04 04:41:00;;;;;;;;;50.00;40.75;;;;;13.14;59.44;101233.91;4940602;28;45179;-66
2022/03/04 04:43:26;;;;;;;;;50.25;40.25;;;;;13.18;59.46;101242.72;4946617;28;45698;-66
2022/03/04 04:45:51;;;;;;;;;47.25;38.25;;;;;13.18;59.70;101242.72;4944150;28;45363;-66
2022/03/04 04:48:17;;;;;;;;;51.75;40.50;;;;;13.16;59.75;101249.94;4942472;28;45335;-66
2022/03/04 04:50:43;;;;;;;;;53.00;42.75;;;;;13.14;59.46;101243.75;4947176;28;45417;-66
2022/03/04 04:53:08;;;;;;;;;50.25;41.25;;;;;13.12;59.50;101245.63;4946951;28;45487;-66
2022/03/04 04:55:34;;;;;;;;;53.00;43.25;;;;;13.08;59.62;101244.84;4937675;28;45374;-66
2022/03/04 04:57:59;;;;;;;;;50.75;41.75;;;;;13.04;59.45;101261.94;4936957;28;45329;-66
2022/03/04 05:00:26;;;;;;;;;53.00;42.00;;;;;13.06;59.68;101261.91;4946976;28;45373;-66
2022/03/04 05:02:52;;;;;;;;;52.25;43.50;;;;;13.06;59.39;101259.22;4943061;28;45420;-65
2022/03/04 05:05:18;;;;;;;;;52.75;44.00;;;;;13.03;59.50;101253.97;4946744;28;46134;-65
2022/03/04 05:07:44;;;;;;;;;57.25;42.25;;;;;12.98;59.73;101257.69;4946778;28;45740;-66
2022/03/04 05:10:09;;;;;;;;;48.50;41.25;;;;;12.96;59.96;101251.50;4947282;28;45289;-66
2022/03/04 05:12:35;;;;;;;;;54.00;43.25;;;;;13.03;60.01;101264.69;4947837;28;45467;-66
2022/03/04 05:15:00;;;;;;;;;48.00;40.50;;;;;13.02;60.17;101254.91;4923797;28;45322;-65
2022/03/04 05:17:26;;;;;;;;;52.75;44.00;;;;;13.06;59.67;101262.78;4935960;28;45322;-66
2022/03/04 05:19:51;;;;;;;;;55.00;44.25;;;;;13.09;60.02;101262.66;4931820;28;45437;-66
2022/03/04 05:22:17;;;;;;;;;53.50;44.00;;;;;13.10;59.97;101276.97;4923234;28;45797;-66
2022/03/04 05:24:43;;;;;;;;;54.00;44.50;;;;;13.08;59.89;101260.03;4924065;28;46275;-66
2022/03/04 05:27:08;;;;;;;;;56.75;45.75;;;;;13.03;59.86;101259.31;4924281;28;45249;-65
2022/03/04 05:29:34;;;;;;;;;61.00;48.25;;;;;13.12;60.23;101273.28;4941721;28;45431;-66
2022/03/04 05:32:00;;;;;;;;;60.50;46.75;;;;;13.11;60.03;101274.25;4928291;28;45442;-65
2022/03/04 05:34:25;;;;;;;;;55.50;45.00;;;;;13.03;60.08;101253.97;4935556;28;46170;-65
2022/03/04 05:36:51;;;;;;;;;55.00;45.25;;;;;13.11;59.95;101276.03;4939679;28;45369;-65
2022/03/04 05:39:16;;;;;;;;;60.50;47.00;;;;;13.11;60.19;101276.03;4941006;28;45261;-65
2022/03/04 05:41:42;;;;;;;;;56.50;46.25;;;;;13.14;60.12;101278.59;4941154;28;45574;-66
2022/03/04 05:44:07;;;;;;;;;59.00;46.50;;;;;13.13;60.20;101276.84;4935808;28;46268;-66
2022/03/04 05:46:33;;;;;;;;;58.75;46.75;;;;;13.05;60.10;101268.22;4928023;28;45282;-66
2022/03/04 05:48:58;;;;;;;;;59.25;46.50;;;;;13.10;60.53;101268.94;4947060;28;45434;-66
2022/03/04 05:51:23;;;;;;;;;54.25;43.75;;;;;13.13;60.32;101282.19;4938458;28;45356;-66
2022/03/04 05:53:51;;;;;;;;;54.00;45.00;;;;;13.16;60.32;101274.06;4938816;28;46186;-66
2022/03/04 05:56:17;;;;;;;;;53.75;45.75;;;;;13.08;60.05;101263.63;4937535;28;46033;-66
2022/03/04 05:58:43;;;;;;;;;56.75;44.75;;;;;13.10;60.23;101261.75;4937540;28;45492;-66
2022/03/04 06:01:08;;;;;;;;;52.00;44.25;;;;;13.15;60.30;101273.19;4938805;28;45379;-66
2022/03/04 06:03:35;;;;;;;;;55.00;44.25;;;;;13.14;60.26;101275.91;4935637;28;45939;-66
2022/03/04 06:06:01;;;;;;;;;58.75;47.25;;;;;13.17;60.38;101281.19;4936349;28;45346;-66
2022/03/04 06:08:26;;;;;;;;;56.00;45.75;;;;;13.11;60.26;101265.28;4937270;28;45463;-66
2022/03/04 06:10:51;;;;;;;;;56.75;46.50;;;;;13.20;60.16;101278.41;4936683;28;45215;-66
2022/03/04 06:13:17;;;;;;;;;57.25;44.25;;;;;13.20;60.14;101273.03;4942616;28;45887;-66
2022/03/04 06:15:42;;;;;;;;;57.00;44.75;;;;;13.23;60.03;101286.34;4938254;28;45474;-66
2022/03/04 06:18:08;;;;;;;;;56.75;46.50;;;;;13.26;59.98;101286.19;4934101;28;45350;-66
2022/03/04 06:20:33;;;;;;;;;59.50;47.00;;;;;13.23;60.10;101289.00;4928302;28;46908;-66
2022/03/04 06:22:59;;;;;;;;;58.50;47.00;;;;;13.27;60.04;101298.69;4935820;28;46651;-66
2022/03/04 06:25:25;;;;;;;;;60.75;47.00;;;;;13.27;60.14;101304.06;4942398;28;45304;-66
2022/03/04 06:27:53;;;;;;;;;60.00;46.50;;;;;13.27;60.18;101297.81;4936629;28;45238;-66
2022/03/04 06:30:19;;;;;;;;;57.25;46.50;;;;;13.26;60.10;101296.06;4935725;28;45451;-66
2022/03/04 06:32:44;;;;;;;;;57.75;47.25;;;;;13.26;59.96;101302.28;4937916;28;45534;-66
2022/03/04 06:35:10;;;;;;;;;54.00;46.00;;;;;13.27;59.74;101297.81;4937291;28;45306;-66
2022/03/04 06:37:35;;;;;;;;;59.75;46.50;;;;;13.27;59.91;101316.59;4942387;28;45335;-66
2022/03/04 06:40:02;;;;;;;;;57.25;46.00;;;;;13.20;59.75;101306.97;4938447;28;45508;-66
2022/03/04 06:42:28;;;;;;;;;53.00;45.25;;;;;13.22;60.02;101318.56;4932038;28;47569;-66
2022/03/04 06:44:53;;;;;;;;;58.25;46.50;;;;;13.22;59.95;101316.75;4941735;28;45558;-66
2022/03/04 06:47:18;;;;;;;;;65.50;51.00;;;;;13.19;59.95;101324.03;4939685;28;45231;-66
2022/03/04 06:49:43;;;;;;;;;66.25;50.25;;;;;13.21;60.17;101324.84;4940244;28;45422;-66
2022/03/04 06:52:09;;;;;;;;;61.00;49.00;;;;;13.21;60.05;101323.03;4941433;28;46003;-66
2022/03/04 06:54:36;;;;;;;;;60.75;46.75;;;;;13.27;60.16;101336.22;4938176;28;45440;-66
2022/03/04 06:57:02;;;;;;;;;60.00;47.00;;;;;13.26;60.19;101341.63;4937233;28;45314;-66
2022/03/04 06:59:27;;;;;;;;;59.75;47.25;;;;;13.20;60.14;101329.34;4932393;28;45441;-66
2022/03/04 07:01:53;;;;;;;;;52.50;43.00;;;;;13.26;59.99;101345.19;4936517;28;46185;-66
2022/03/04 07:04:18;;;;;;;;;59.75;49.25;;;;;13.24;60.27;101338.13;4941861;28;45442;-66
2022/03/04 07:06:44;;;;;;;;;56.75;46.25;;;;;13.27;60.16;101346.94;4938116;28;45518;-66
2022/03/04 07:09:09;;;;;;;;;52.75;44.25;;;;;13.24;60.15;101335.47;4941998;28;45394;-66
2022/03/04 07:11:34;;;;;;;;;60.75;46.75;;;;;13.30;60.00;101354.91;4940297;28;46007;-66
2022/03/04 07:14:00;;;;;;;;;56.25;46.00;;;;;13.31;59.98;101356.66;4941312;28;45250;-66
2022/03/04 07:16:25;;;;;;;;;56.00;44.75;;;;;13.33;60.18;101351.25;4939035;28;45385;-66
2022/03/04 07:18:50;;;;;;;;;57.00;46.00;;;;;13.28;59.85;101351.41;4938874;28;45372;-66
2022/03/04 07:21:16;;;;;;;;;57.25;46.75;;;;;13.33;59.83;101352.16;4940587;28;46305;-66
2022/03/04 07:23:41;;;;;;;;;58.00;47.25;;;;;13.33;59.62;101360.19;4939666;28;45323;-66
2022/03/04 07:26:09;;;;;;;;;56.25;45.25;;;;;13.32;59.78;101355.75;4937574;28;45417;-66
2022/03/04 07:28:34;;;;;;;;;61.00;48.75;;;;;13.32;59.47;101361.09;4941114;28;45480;-66
2022/03/04 07:30:59;;;;;;;;;59.25;48.00;;;;;13.36;59.60;101361.88;4933778;28;45475;-66
2022/03/04 07:33:25;;;;;;;;;55.75;45.75;;;;;13.35;59.54;101368.19;4933308;28;45200;-66
2022/03/04 07:35:51;;;;;;;;;54.00;45.25;;;;;13.33;59.32;101361.97;4940987;28;45285;-66
2022/03/04 07:38:16;;;;;;;;;56.25;46.00;;;;;13.35;59.14;101370.88;4933227;28;45324;-66
2022/03/04 07:40:41;;;;;;;;;57.75;45.00;;;;;13.32;59.19;101363.78;4931456;28;46836;-66
2022/03/04 07:43:07;;;;;;;;;53.50;44.50;;;;;13.34;59.16;101361.91;4935964;28;45417;-66
2022/03/04 07:45:33;;;;;;;;;53.00;42.75;;;;;13.36;59.25;101366.38;4931432;28;45378;-66
2022/03/04 07:47:59;;;;;;;;;51.50;43.00;;;;;13.36;58.80;101371.72;4931925;28;45439;-66
2022/03/04 07:50:25;;;;;;;;;52.50;43.25;;;;;13.36;58.97;101377.09;4941124;28;45393;-66
2022/03/04 07:52:50;;;;;;;;;51.25;43.00;;;;;13.32;58.99;101360.25;4937389;28;45446;-66
2022/03/04 07:55:17;;;;;;;;;58.00;45.25;;;;;13.31;58.88;101370.06;4937392;28;45443;-66
2022/03/04 07:57:43;;;;;;;;;51.50;43.75;;;;;13.28;58.79;101374.63;4933299;28;45506;-66
2022/03/04 08:00:12;;;;;;;;;62.25;48.50;;;;;13.27;58.78;101379.13;4926971;28;45524;-66
2022/03/04 08:02:38;;;;;;;;;54.75;45.50;;;;;13.16;58.69;101374.13;4942899;28;45543;-66
2022/03/04 08:05:04;;;;;;;;;59.00;47.00;;;;;13.12;58.76;101379.63;4932659;28;45473;-66
2022/03/04 08:07:30;;;;;;;;;56.50;44.25;;;;;13.12;58.70;101387.69;4941084;28;45504;-66
2022/03/04 08:09:55;;;;;;;;;57.50;44.25;;;;;13.07;58.82;101386.94;4939253;28;45897;-66
2022/03/04 08:12:22;;;;;;;;;55.75;43.50;;;;;13.01;58.93;101384.47;4941360;28;45515;-66
2022/03/04 08:14:48;;;;;;;;;58.00;46.75;;;;;12.97;58.99;101386.38;4921025;28;45349;-66
2022/03/04 08:17:13;;;;;;;;;53.00;45.00;;;;;12.90;58.97;101393.72;4936423;28;45794;-66
2022/03/04 08:19:39;;;;;;;;;61.25;47.00;;;;;12.91;59.04;101400.84;4936906;28;45937;-69
2022/03/04 08:22:05;;;;;;;;;57.50;47.50;;;;;12.85;59.01;101408.22;4934956;28;45358;-68
2022/03/04 08:24:31;;;;;;;;;59.25;48.00;;;;;12.77;59.04;101409.31;4921697;28;45399;-69
2022/03/04 08:26:57;;;;;;;;;60.25;48.00;;;;;12.71;59.24;101403.25;4929850;28;45405;-69
2022/03/04 08:29:22;;;;;;;;;57.50;48.00;;;;;12.67;59.24;101396.25;4940252;28;45655;-68
2022/03/04 08:31:48;;;;;;;;;56.75;47.50;;;;;12.67;59.53;101405.16;4929862;28;45412;-68
2022/03/04 08:34:13;;;;;;;;;62.00;49.75;;;;;12.72;59.45;101408.56;4943078;28;45473;-68
2022/03/04 08:36:38;;;;;;;;;64.00;51.50;;;;;12.75;59.67;101418.31;4940449;28;45456;-68
2022/03/04 08:39:05;;;;;;;;;65.50;50.25;;;;;12.75;59.56;101408.47;4940526;28;45333;-68
2022/03/04 08:41:32;;;;;;;;;62.25;50.00;;;;;12.79;59.58;101412.81;4938565;28;45341;-69
2022/03/04 08:43:58;;;;;;;;;61.50;48.75;;;;;12.76;59.54;101404.00;4940780;28;45344;-68
2022/03/04 08:46:24;;;;;;;;;54.75;45.75;;;;;12.83;59.33;101412.72;4940674;28;45254;-68
2022/03/04 08:48:49;;;;;;;;;59.50;49.25;;;;;12.83;59.06;101418.06;4944006;28;46255;-68
2022/03/04 08:51:15;;;;;;;;;64.50;50.50;;;;;12.85;59.24;101419.78;4939148;28;45408;-68
2022/03/04 08:53:40;;;;;;;;;57.00;46.50;;;;;12.85;59.20;101424.28;4939456;28;45915;-68
2022/03/04 08:56:06;;;;;;;;;60.75;49.75;;;;;12.81;59.54;101412.75;4943690;28;45306;-68
2022/03/04 08:58:32;;;;;;;;;56.25;47.25;;;;;12.88;59.27;101424.16;4943700;28;46175;-68
2022/03/04 09:00:57;;;;;;;;;62.75;48.75;;;;;12.88;59.32;101417.03;4943621;28;45491;-70
2022/03/04 09:03:22;;;;;;;;;64.50;50.75;;;;;12.86;59.28;101420.66;4944022;28;45709;-69
2022/03/04 09:05:48;;;;;;;;;63.00;49.00;;;;;12.91;59.49;101426.75;4943656;28;45421;-70
2022/03/04 09:08:14;;;;;;;;;60.00;48.50;;;;;12.93;59.43;101417.75;4943383;28;46474;-66
2022/03/04 09:10:39;;;;;;;;;57.25;48.00;;;;;12.97;59.46;101424.75;4943663;28;45285;-67
2022/03/04 09:13:05;;;;;;;;;57.00;47.00;;;;;13.02;59.52;101427.28;4941776;28;45353;-66
2022/03/04 09:15:31;;;;;;;;;63.50;48.25;;;;;12.97;59.38;101418.53;4939542;28;45319;-67
2022/03/04 09:17:56;;;;;;;;;60.00;48.75;;;;;12.98;59.43;101421.16;4942815;28;46039;-67
2022/03/04 09:20:22;;;;;;;;;58.50;48.00;;;;;13.05;59.45;101429.88;4943518;28;45400;-67
2022/03/04 09:22:48;;;;;;;;;59.50;48.00;;;;;13.08;59.26;101427.13;4943555;28;45215;-67
2022/03/04 09:25:14;;;;;;;;;63.25;47.50;;;;;13.12;59.42;101433.25;4943659;28;45213;-67
2022/03/04 09:27:41;;;;;;;;;60.50;49.25;;;;;13.11;59.52;101420.75;4942947;28;46341;-67
2022/03/04 09:30:07;;;;;;;;;63.50;48.00;;;;;13.20;59.30;101431.19;4957849;28;45324;-67
2022/03/04 09:32:32;;;;;;;;;61.50;49.00;;;;;13.19;58.85;101423.22;4943310;28;45326;-67
2022/03/04 09:34:58;;;;;;;;;62.25;49.50;;;;;13.24;58.92;101423.94;4934464;28;45438;-62
2022/03/04 09:37:24;;;;;;;;;64.25;50.00;;;;;13.25;59.07;101420.34;4923812;28;45310;-64
2022/03/04 09:39:49;;;;;;;;;62.25;51.00;;;;;13.29;58.87;101425.53;4924327;28;45394;-64
2022/03/04 09:42:14;;;;;;;;;60.00;45.75;;;;;13.30;58.69;101424.59;4936057;28;45387;-65
2022/03/04 09:44:40;;;;;;;;;60.50;49.50;;;;;13.29;58.98;101424.66;4923912;28;45374;-64
2022/03/04 09:47:06;;;;;;;;;63.75;52.00;;;;;13.30;58.97;101424.59;4923708;28;45443;-63
2022/03/04 09:49:34;;;;;;;;;62.75;49.75;;;;;13.30;58.90;101421.06;4923803;28;45338;-63
2022/03/04 09:52:00;;;;;;;;;61.50;49.25;;;;;13.33;58.73;101426.31;4948653;28;45254;-63
2022/03/04 09:54:29;;;;;;;;;64.75;52.00;;;;;13.34;59.01;101428.97;4940441;28;45468;-64
2022/03/04 09:56:56;;;;;;;;;65.00;51.75;;;;;13.36;58.95;101436.09;4939990;28;46183;-64
2022/03/04 09:59:23;;;;;;;;;65.75;52.75;;;;;13.34;58.76;101418.22;4942204;28;45719;-63
2022/03/04 10:01:48;;;;;;;;;64.75;52.00;;;;;13.43;58.65;101434.94;4942762;28;45329;-63
2022/03/04 10:04:13;;;;;;;;;62.00;49.00;;;;;13.43;58.82;101430.47;4943254;28;45380;-63
2022/03/04 10:06:43;;;;;;;;;61.50;49.25;;;;;13.51;58.81;101430.22;4942468;28;45500;-64
2022/03/04 10:09:09;;;;;;;;;61.50;50.25;;;;;13.55;58.58;101429.19;4933053;28;45437;-63
2022/03/04 10:11:37;;;;;;;;;63.00;49.50;;;;;13.58;58.84;101433.56;4941231;28;46016;-64
2022/03/04 10:14:07;;;;;;;;;63.00;49.75;;;;;13.64;58.65;101436.91;4942525;28;45416;-63
2022/03/04 10:16:35;;;;;;;;;66.00;53.00;;;;;13.66;58.29;101436.84;4947450;28;45435;-63
2022/03/04 10:19:18;;;;;;;;;64.00;50.25;;;;;13.65;58.25;101432.44;4944147;28;45313;-63
2022/03/04 10:22:04;;;;;;;;;62.75;51.00;;;;;13.63;58.32;101432.50;4932387;28;45401;-63
2022/03/04 10:24:35;;;;;;;;;70.00;54.50;;;;;13.64;58.39;101426.19;4942257;28;45440;-63
2022/03/04 10:27:03;;;;;;;;;69.50;54.25;;;;;13.62;58.18;101429.88;4942524;28;46140;-63
2022/03/04 10:29:36;;;;;;;;;66.25;53.00;;;;;13.59;58.28;101433.50;4942087;28;45279;-63
2022/03/04 10:32:22;;;;;;;;;67.00;52.75;;;;;13.63;58.49;101431.59;4942526;28;45251;-63
2022/03/04 10:34:56;;;;;;;;;66.25;51.25;;;;;13.61;58.30;101422.72;4937758;28;45510;-63
2022/03/04 10:37:21;;;;;;;;;64.50;52.75;;;;;13.70;58.43;101434.03;4942339;28;46543;-63
2022/03/04 10:40:08;;;;;;;;;62.50;50.25;;;;;13.65;58.47;101424.41;4942186;28;45411;-63
2022/03/04 10:42:51;;;;;;;;;66.25;52.25;;;;;13.73;58.25;101434.84;4942125;28;45296;-63
2022/03/04 10:45:22;;;;;;;;;66.25;51.25;;;;;13.73;58.22;101430.34;4935204;28;45377;-63
2022/03/04 10:47:50;;;;;;;;;70.50;53.50;;;;;13.76;58.05;101432.94;4942129;28;46020;-63
2022/03/04 10:50:19;;;;;;;;;67.75;53.00;;;;;13.79;58.02;101434.63;4941936;28;45373;-63
2022/03/04 10:52:52;;;;;;;;;69.00;54.75;;;;;13.80;58.52;101442.63;4938220;28;45318;-63
2022/03/04 10:55:25;;;;;;;;;66.25;52.00;;;;;13.82;58.43;101431.84;4924276;28;45313;-63
2022/03/04 10:57:51;;;;;;;;;69.00;53.50;;;;;13.88;58.16;101427.16;4922857;28;45540;-63
2022/03/04 11:00:23;;;;;;;;;66.50;54.50;;;;;13.92;58.32;101435.09;4922752;28;45235;-63
2022/03/04 11:02:49;;;;;;;;;65.00;53.00;;;;;13.90;58.17;101432.47;4923229;28;45246;-63
2022/03/04 11:05:16;;;;;;;;;66.00;52.50;;;;;13.95;57.95;101424.22;4922952;28;45592;-63